Time;durP1;ratioP1;P1;durP2;ratioP2;P2;SDS_P1;SDS_P2;PMS_P1;PMS_P2;Temp;Humidity;BMP_temperature;BMP_pressure;BME280_temperature;BME280_humidity;BME280_pressure;Samples;Min_cycle;Max_cycle;Signal;HPM_P1;HPM_P2
2023/12/01 00:03:28;;;;;;;7.93;4.93;;;;;;;;;;10370761;28;20089;-74
2023/12/01 00:08:31;;;;;;;8.52;4.97;;;;;;;;;;10346938;28;20042;-75
2023/12/01 00:13:34;;;;;;;7.03;4.95;;;;;;;;;;10300548;28;20409;-74
2023/12/01 00:18:39;;;;;;;6.07;4.20;;;;;;;;;;10318003;28;20045;-74
2023/12/01 00:23:43;;;;;;;7.88;5.57;;;;;;;;;;10311852;28;20150;-75
2023/12/01 00:28:46;;;;;;;5.85;4.38;;;;;;;;;;10307834;28;20052;-74
2023/12/01 00:33:51;;;;;;;7.47;5.07;;;;;;;;;;10334478;28;20129;-74
2023/12/01 00:38:54;;;;;;;6.95;4.88;;;;;;;;;;10309224;28;20074;-74
2023/12/01 00:43:57;;;;;;;6.07;4.78;;;;;;;;;;10307216;28;20578;-75
2023/12/01 00:49:02;;;;;;;6.47;4.82;;;;;;;;;;10329261;28;20444;-75
2023/12/01 00:54:06;;;;;;;6.75;4.70;;;;;;;;;;10367876;28;20055;-75
2023/12/01 00:59:09;;;;;;;7.47;4.93;;;;;;;;;;10286623;28;20419;-75
2023/12/01 01:04:14;;;;;;;7.32;5.15;;;;;;;;;;10313454;28;20429;-74
2023/12/01 01:09:17;;;;;;;6.07;4.60;;;;;;;;;;10311226;28;20136;-74
2023/12/01 01:14:20;;;;;;;7.38;5.05;;;;;;;;;;10424394;28;20044;-75
2023/12/01 01:19:25;;;;;;;7.50;5.10;;;;;;;;;;10380944;28;20045;-74
2023/12/01 01:24:28;;;;;;;6.68;4.68;;;;;;;;;;10351982;28;20073;-75
2023/12/01 01:29:32;;;;;;;6.10;4.50;;;;;;;;;;10323903;28;20046;-75
2023/12/01 01:34:36;;;;;;;5.90;4.25;;;;;;;;;;10373771;28;20611;-74
2023/12/01 01:39:39;;;;;;;6.85;5.30;;;;;;;;;;10375753;28;20077;-74
2023/12/01 01:44:43;;;;;;;6.47;4.53;;;;;;;;;;10387821;28;20130;-73
2023/12/01 01:49:48;;;;;;;6.18;4.43;;;;;;;;;;10365320;28;20051;-73
2023/12/01 01:54:51;;;;;;;7.00;4.95;;;;;;;;;;10362761;28;20053;-73
2023/12/01 01:59:54;;;;;;;6.65;4.78;;;;;;;;;;10397989;28;20074;-73
2023/12/01 02:04:59;;;;;;;5.10;4.07;;;;;;;;;;10340458;28;20047;-73
2023/12/01 02:10:03;;;;;;;4.93;3.90;;;;;;;;;;10362399;28;20043;-73
2023/12/01 02:15:10;;;;;;;4.68;3.47;;;;;;;;;;10326193;28;20123;-73
2023/12/01 02:20:15;;;;;;;3.97;3.33;;;;;;;;;;10342175;28;20143;-73
2023/12/01 02:25:20;;;;;;;5.33;3.70;;;;;;;;;;10342709;28;20666;-73
2023/12/01 02:30:23;;;;;;;5.75;3.42;;;;;;;;;;10424480;28;20050;-74
2023/12/01 02:35:29;;;;;;;3.85;3.03;;;;;;;;;;10319274;28;20051;-73
2023/12/01 02:40:34;;;;;;;4.78;3.63;;;;;;;;;;10406235;28;20100;-73
2023/12/01 02:45:37;;;;;;;5.70;4.07;;;;;;;;;;10361871;28;20047;-73
2023/12/01 02:50:40;;;;;;;4.82;4.15;;;;;;;;;;10369865;28;20119;-73
2023/12/01 02:55:45;;;;;;;4.15;3.40;;;;;;;;;;10341518;28;20050;-73
2023/12/01 03:00:49;;;;;;;4.23;3.23;;;;;;;;;;10327961;28;20043;-73
2023/12/01 03:05:52;;;;;;;3.35;2.63;;;;;;;;;;10375422;28;20058;-73
2023/12/01 03:10:57;;;;;;;3.70;2.97;;;;;;;;;;10359032;28;20054;-74
2023/12/01 03:16:00;;;;;;;2.85;2.55;;;;;;;;;;10357836;28;20588;-73
2023/12/01 03:21:12;;;;;;;3.88;2.67;;;;;;;;;;10308532;28;20055;-73
2023/12/01 03:26:18;;;;;;;3.47;2.72;;;;;;;;;;10375482;28;20048;-73
2023/12/01 03:31:21;;;;;;;4.47;3.45;;;;;;;;;;10393771;28;20450;-73
2023/12/01 03:36:24;;;;;;;2.80;2.30;;;;;;;;;;10359768;28;20051;-73
2023/12/01 03:41:29;;;;;;;4.43;3.00;;;;;;;;;;10367455;28;20048;-73
2023/12/01 03:46:32;;;;;;;3.90;3.10;;;;;;;;;;10329644;28;20043;-73
2023/12/01 03:51:36;;;;;;;5.18;3.38;;;;;;;;;;10363468;28;20081;-73
2023/12/01 03:56:41;;;;;;;4.03;3.17;;;;;;;;;;10404978;22;20057;-75
2023/12/01 04:01:44;;;;;;;3.78;3.08;;;;;;;;;;10434928;28;20167;-74
2023/12/01 04:06:47;;;;;;;3.78;2.72;;;;;;;;;;10375063;28;20084;-74
2023/12/01 04:11:54;;;;;;;2.65;2.40;;;;;;;;;;10387849;28;20050;-74
2023/12/01 04:16:57;;;;;;;2.45;1.98;;;;;;;;;;10402435;28;20045;-75
2023/12/01 04:22:02;;;;;;;3.53;2.33;;;;;;;;;;10401827;28;20502;-74
2023/12/01 04:27:07;;;;;;;2.30;2.00;;;;;;;;;;10400041;28;20710;-74
2023/12/01 04:32:10;;;;;;;3.47;2.83;;;;;;;;;;10396143;28;20049;-74
2023/12/01 04:37:15;;;;;;;3.30;2.70;;;;;;;;;;10393420;28;20080;-74
2023/12/01 04:42:19;;;;;;;2.60;2.38;;;;;;;;;;10391275;28;20155;-74
2023/12/01 04:47:22;;;;;;;2.40;2.20;;;;;;;;;;10395823;28;20128;-74
2023/12/01 04:52:26;;;;;;;3.33;2.40;;;;;;;;;;10388898;28;20128;-74
2023/12/01 04:57:30;;;;;;;3.10;2.65;;;;;;;;;;10394252;28;20053;-75
2023/12/01 05:02:33;;;;;;;2.97;2.30;;;;;;;;;;10390371;28;20056;-74
2023/12/01 05:07:37;;;;;;;3.20;2.78;;;;;;;;;;10393893;28;20064;-74
2023/12/01 05:12:42;;;;;;;3.60;2.28;;;;;;;;;;10409104;28;20033;-74
2023/12/01 05:17:46;;;;;;;2.57;2.27;;;;;;;;;;10402631;28;20136;-74
2023/12/01 05:22:51;;;;;;;3.78;2.83;;;;;;;;;;10401720;28;20306;-74
2023/12/01 05:27:56;;;;;;;2.97;2.50;;;;;;;;;;10394185;28;20049;-75
2023/12/01 05:33:00;;;;;;;4.30;3.43;;;;;;;;;;10396659;28;20051;-74
2023/12/01 05:38:05;;;;;;;2.47;2.22;;;;;;;;;;10396001;28;20082;-74
2023/12/01 05:43:09;;;;;;;2.80;2.22;;;;;;;;;;10399794;28;20133;-74
2023/12/01 05:48:13;;;;;;;2.95;2.47;;;;;;;;;;10392340;28;20054;-75
2023/12/01 05:53:16;;;;;;;3.42;2.47;;;;;;;;;;10394078;28;20065;-75
2023/12/01 05:58:21;;;;;;;2.63;2.40;;;;;;;;;;10400077;28;20062;-74
2023/12/01 06:03:26;;;;;;;3.20;2.28;;;;;;;;;;10395970;28;20050;-74
2023/12/01 06:08:29;;;;;;;2.50;1.90;;;;;;;;;;10389020;28;20053;-74
2023/12/01 06:13:34;;;;;;;2.67;2.10;;;;;;;;;;10400085;28;20042;-74
2023/12/01 06:18:37;;;;;;;2.65;2.20;;;;;;;;;;10401399;28;20068;-74
2023/12/01 06:23:40;;;;;;;3.58;2.42;;;;;;;;;;10400870;28;20099;-74
2023/12/01 06:28:45;;;;;;;4.05;3.03;;;;;;;;;;10403273;28;20053;-74
2023/12/01 06:33:48;;;;;;;3.80;2.90;;;;;;;;;;10400573;28;20179;-74
2023/12/01 06:38:51;;;;;;;3.13;2.45;;;;;;;;;;10398539;28;20100;-74
2023/12/01 06:43:56;;;;;;;2.60;2.30;;;;;;;;;;10390578;28;20042;-74
2023/12/01 06:49:00;;;;;;;3.05;2.65;;;;;;;;;;10392108;28;20613;-74
2023/12/01 06:54:03;;;;;;;2.92;2.20;;;;;;;;;;10403717;28;20125;-74
2023/12/01 06:59:08;;;;;;;3.58;2.60;;;;;;;;;;10405145;28;20046;-74
2023/12/01 07:04:14;;;;;;;4.23;3.10;;;;;;;;;;10406356;28;20058;-74
2023/12/01 07:09:17;;;;;;;4.13;2.90;;;;;;;;;;10402863;28;20128;-74
2023/12/01 07:14:23;;;;;;;4.22;3.13;;;;;;;;;;10395843;28;20059;-74
2023/12/01 07:19:26;;;;;;;3.25;2.50;;;;;;;;;;10402430;28;20084;-74
2023/12/01 07:24:30;;;;;;;4.10;2.85;;;;;;;;;;10397284;28;20053;-74
2023/12/01 07:29:34;;;;;;;5.75;3.75;;;;;;;;;;10401277;28;20518;-74
2023/12/01 07:34:37;;;;;;;3.83;3.33;;;;;;;;;;10395776;28;20056;-74
2023/12/01 07:39:41;;;;;;;3.53;2.92;;;;;;;;;;10397514;28;20066;-74
2023/12/01 07:44:45;;;;;;;3.13;2.33;;;;;;;;;;10393349;28;20124;-74
2023/12/01 07:49:48;;;;;;;3.63;2.63;;;;;;;;;;10379850;28;20059;-74
2023/12/01 07:54:52;;;;;;;2.70;2.30;;;;;;;;;;10388664;28;20392;-74
2023/12/01 07:59:57;;;;;;;3.78;3.03;;;;;;;;;;10390620;28;20053;-74
2023/12/01 08:05:00;;;;;;;3.53;2.70;;;;;;;;;;10396957;28;20041;-74
2023/12/01 08:10:06;;;;;;;4.18;2.78;;;;;;;;;;10396698;28;20050;-74
2023/12/01 08:15:11;;;;;;;3.30;2.60;;;;;;;;;;10391692;28;20084;-74
2023/12/01 08:20:16;;;;;;;4.47;3.10;;;;;;;;;;10387473;28;20502;-74
2023/12/01 08:25:21;;;;;;;4.38;3.30;;;;;;;;;;10394164;28;20120;-74
2023/12/01 08:30:26;;;;;;;4.03;3.20;;;;;;;;;;10391318;28;20074;-74
2023/12/01 08:35:29;;;;;;;4.43;3.05;;;;;;;;;;10394214;28;20125;-74
2023/12/01 08:40:32;;;;;;;4.47;3.22;;;;;;;;;;10397479;28;20054;-74
2023/12/01 08:45:37;;;;;;;4.60;2.92;;;;;;;;;;10400131;28;20057;-74
2023/12/01 08:50:40;;;;;;;3.00;2.55;;;;;;;;;;10402999;28;20116;-73
2023/12/01 08:55:44;;;;;;;3.92;3.22;;;;;;;;;;10398749;28;20124;-74
2023/12/01 09:00:48;;;;;;;4.57;3.25;;;;;;;;;;10399171;28;20051;-74
2023/12/01 09:05:52;;;;;;;4.70;3.55;;;;;;;;;;10398981;28;20120;-74
2023/12/01 09:10:55;;;;;;;5.25;3.40;;;;;;;;;;10404796;28;20049;-74
2023/12/01 09:16:00;;;;;;;4.18;2.85;;;;;;;;;;10397460;28;20041;-74
2023/12/01 09:21:03;;;;;;;4.97;3.22;;;;;;;;;;10394977;28;20133;-74
2023/12/01 09:26:07;;;;;;;5.72;3.03;;;;;;;;;;10409266;28;20068;-74
2023/12/01 09:31:12;;;;;;;4.68;3.40;;;;;;;;;;10403205;28;20070;-74
2023/12/01 09:36:17;;;;;;;4.85;3.50;;;;;;;;;;10401140;28;20038;-74
2023/12/01 09:41:20;;;;;;;4.20;3.30;;;;;;;;;;10405288;28;20679;-74
2023/12/01 09:46:26;;;;;;;4.80;3.80;;;;;;;;;;10403543;28;20052;-74
2023/12/01 09:51:29;;;;;;;6.28;3.50;;;;;;;;;;10404024;28;20399;-74
2023/12/01 10:22:09;;;;;;;6.40;4.35;;;;;;;;;;10514845;22;20735;-74
2023/12/01 10:27:20;;;;;;;5.55;4.00;;;;;;;;;;10553645;28;20140;-74
2023/12/01 10:32:24;;;;;;;3.95;2.90;;;;;;;;;;10566544;28;20048;-74
2023/12/01 10:37:30;;;;;;;4.13;3.10;;;;;;;;;;10565821;28;20508;-74
2023/12/01 10:42:35;;;;;;;3.72;2.80;;;;;;;;;;10561809;28;20055;-74
2023/12/01 10:47:44;;;;;;;4.47;3.35;;;;;;;;;;10565702;28;20059;-74
2023/12/01 10:52:53;;;;;;;5.00;3.53;;;;;;;;;;10566370;28;20412;-74
2023/12/01 10:57:57;;;;;;;4.25;2.97;;;;;;;;;;10565481;28;20493;-74
2023/12/01 11:03:03;;;;;;;2.88;2.50;;;;;;;;;;10566525;28;20097;-74
2023/12/01 11:08:24;;;;;;;3.20;2.30;;;;;;;;;;10564950;28;20114;-74
2023/12/01 11:13:36;;;;;;;3.92;2.80;;;;;;;;;;10561692;28;20547;-74
2023/12/01 11:18:39;;;;;;;2.60;2.40;;;;;;;;;;10561370;28;20036;-74
2023/12/01 11:23:44;;;;;;;2.70;2.33;;;;;;;;;;10536676;28;20127;-74
2023/12/01 11:28:56;;;;;;;3.92;2.63;;;;;;;;;;10531312;28;20043;-74
2023/12/01 11:34:00;;;;;;;2.47;2.22;;;;;;;;;;10535041;28;20397;-74
2023/12/01 11:39:23;;;;;;;3.88;2.90;;;;;;;;;;10534488;28;20630;-74
2023/12/01 11:44:29;;;;;;;4.32;3.40;;;;;;;;;;10528898;28;20044;-74
2023/12/01 11:49:35;;;;;;;3.45;3.00;;;;;;;;;;10528335;28;20032;-74
2023/12/01 11:54:41;;;;;;;3.40;2.63;;;;;;;;;;10533856;28;20047;-74
2023/12/01 11:59:45;;;;;;;3.70;2.47;;;;;;;;;;10529644;28;20032;-74
2023/12/01 12:04:48;;;;;;;2.65;2.42;;;;;;;;;;10531079;28;20409;-74
2023/12/01 12:09:56;;;;;;;3.53;2.80;;;;;;;;;;10534635;28;20067;-74
2023/12/01 12:15:08;;;;;;;4.15;3.08;;;;;;;;;;10534692;28;20043;-74
2023/12/01 12:20:12;;;;;;;5.72;3.15;;;;;;;;;;10531335;28;20050;-74
2023/12/01 12:25:16;;;;;;;5.05;3.28;;;;;;;;;;10533570;28;20075;-74
2023/12/01 12:30:20;;;;;;;3.83;2.90;;;;;;;;;;10530935;28;20067;-74
2023/12/01 12:35:24;;;;;;;3.53;2.70;;;;;;;;;;10523732;28;20485;-74
2023/12/01 12:40:33;;;;;;;4.35;3.10;;;;;;;;;;10533017;28;20028;-74
2023/12/01 12:45:37;;;;;;;3.17;2.50;;;;;;;;;;10526721;28;20555;-74
2023/12/01 12:50:41;;;;;;;3.40;2.80;;;;;;;;;;10527300;28;20693;-74
2023/12/01 12:55:47;;;;;;;3.67;2.30;;;;;;;;;;10526873;28;20048;-74
2023/12/01 13:00:51;;;;;;;4.85;3.55;;;;;;;;;;10529631;28;20032;-74
2023/12/01 13:05:54;;;;;;;3.58;2.75;;;;;;;;;;10526121;28;20043;-74
2023/12/01 13:10:59;;;;;;;3.38;2.90;;;;;;;;;;10528308;28;20072;-73
2023/12/01 13:16:03;;;;;;;4.43;3.55;;;;;;;;;;10529756;28;20036;-73
2023/12/01 13:21:07;;;;;;;4.15;3.08;;;;;;;;;;10525330;28;20432;-74
2023/12/01 13:26:15;;;;;;;4.00;2.88;;;;;;;;;;10527866;28;20040;-74
2023/12/01 13:31:18;;;;;;;2.42;2.10;;;;;;;;;;10526286;28;20125;-74
2023/12/01 13:36:22;;;;;;;3.58;2.50;;;;;;;;;;10524580;28;20047;-74
2023/12/01 13:41:28;;;;;;;3.47;2.10;;;;;;;;;;10524652;28;20040;-74
2023/12/01 13:46:37;;;;;;;2.58;1.92;;;;;;;;;;10526944;28;20739;-74
2023/12/01 13:51:41;;;;;;;2.45;2.10;;;;;;;;;;10527662;28;20039;-74
2023/12/01 13:56:46;;;;;;;3.20;2.10;;;;;;;;;;10526951;28;20043;-74
2023/12/01 14:01:49;;;;;;;2.75;2.00;;;;;;;;;;10525925;28;20547;-74
2023/12/01 14:06:54;;;;;;;3.33;2.78;;;;;;;;;;10523283;28;20040;-74
2023/12/01 14:11:59;;;;;;;3.55;2.88;;;;;;;;;;10522721;28;20054;-75
2023/12/01 14:17:03;;;;;;;3.22;2.65;;;;;;;;;;10527819;28;20075;-74
2023/12/01 14:22:10;;;;;;;2.67;2.40;;;;;;;;;;10528192;28;20036;-73
2023/12/01 14:27:15;;;;;;;2.85;2.10;;;;;;;;;;10524725;28;20405;-74
2023/12/01 14:32:21;;;;;;;;;;;;;;;;;;10524772;28;20072;-74
2023/12/01 14:37:24;;;;;;;3.72;2.47;;;;;;;;;;10528482;28;19985;-74
2023/12/01 14:42:29;;;;;;;2.83;2.50;;;;;;;;;;10520990;28;20446;-74
2023/12/01 14:47:34;;;;;;;2.07;1.70;;;;;;;;;;10524947;28;20044;-74
2023/12/01 14:52:38;;;;;;;2.65;2.13;;;;;;;;;;10525650;28;20127;-74
2023/12/01 14:57:44;;;;;;;2.30;1.75;;;;;;;;;;10530458;28;20055;-74
2023/12/01 15:02:47;;;;;;;;;;;;;;;;;;10537646;28;20071;-74
2023/12/01 15:07:51;;;;;;;2.80;2.17;;;;;;;;;;10538432;28;20015;-74
2023/12/01 15:12:56;;;;;;;2.60;1.90;;;;;;;;;;10535237;28;20105;-74
2023/12/01 15:17:59;;;;;;;2.72;2.20;;;;;;;;;;10533019;28;20426;-74
2023/12/01 15:23:03;;;;;;;3.13;2.28;;;;;;;;;;10533106;28;20071;-73
2023/12/01 15:28:08;;;;;;;2.28;2.00;;;;;;;;;;10523621;28;20112;-73
2023/12/01 15:33:11;;;;;;;2.60;1.98;;;;;;;;;;10533566;28;20074;-74
2023/12/01 15:38:15;;;;;;;2.65;2.22;;;;;;;;;;10529659;28;20147;-73
2023/12/01 15:43:20;;;;;;;2.60;1.77;;;;;;;;;;10532248;28;20040;-73
2023/12/01 15:48:23;;;;;;;2.60;2.38;;;;;;;;;;10530163;28;20043;-73
2023/12/01 15:53:33;;;;;;;2.47;1.90;;;;;;;;;;10532883;28;20109;-73
2023/12/01 15:58:38;;;;;;;4.32;2.80;;;;;;;;;;10531030;28;20048;-74
2023/12/01 16:03:41;;;;;;;3.67;2.22;;;;;;;;;;10531617;28;20035;-73
2023/12/01 16:08:44;;;;;;;2.97;2.30;;;;;;;;;;10530967;28;20051;-73
2023/12/01 16:13:49;;;;;;;3.70;2.80;;;;;;;;;;10533048;28;20044;-73
2023/12/01 16:18:53;;;;;;;3.08;2.13;;;;;;;;;;10532293;28;20044;-73
2023/12/01 16:23:56;;;;;;;2.17;1.92;;;;;;;;;;10518189;22;20062;-74
2023/12/01 16:29:01;;;;;;;4.00;2.65;;;;;;;;;;10461183;28;20056;-74
2023/12/01 16:34:04;;;;;;;4.88;3.08;;;;;;;;;;10474780;28;20541;-73
2023/12/01 16:39:08;;;;;;;3.95;2.80;;;;;;;;;;10475821;28;20059;-74
2023/12/01 16:44:13;;;;;;;5.18;3.50;;;;;;;;;;10455626;28;20128;-74
2023/12/01 16:49:16;;;;;;;4.15;2.90;;;;;;;;;;10472832;28;20549;-73
2023/12/01 16:54:19;;;;;;;4.25;3.08;;;;;;;;;;10477527;28;20048;-73
2023/12/01 16:59:24;;;;;;;3.50;2.40;;;;;;;;;;10467061;28;20106;-74
2023/12/01 17:04:27;;;;;;;3.55;2.45;;;;;;;;;;10472571;28;20492;-74
2023/12/01 17:09:31;;;;;;;2.97;2.35;;;;;;;;;;10451441;28;20113;-74
2023/12/01 17:14:36;;;;;;;4.68;2.75;;;;;;;;;;10477406;28;20411;-74
2023/12/01 17:19:39;;;;;;;4.35;2.60;;;;;;;;;;10471452;28;20157;-73
2023/12/01 17:24:43;;;;;;;4.57;2.88;;;;;;;;;;10467858;28;20494;-74
2023/12/01 17:29:48;;;;;;;4.80;2.65;;;;;;;;;;10468514;28;20052;-74
2023/12/01 17:34:51;;;;;;;5.00;3.20;;;;;;;;;;10473324;28;20056;-74
2023/12/01 17:39:55;;;;;;;4.97;3.03;;;;;;;;;;10470246;28;20041;-74
2023/12/01 17:45:00;;;;;;;4.18;2.70;;;;;;;;;;10445695;28;20049;-74
2023/12/01 17:50:03;;;;;;;4.53;3.00;;;;;;;;;;10464007;28;20047;-74
2023/12/01 17:55:07;;;;;;;6.53;3.38;;;;;;;;;;10467812;28;20506;-73
2023/12/01 18:00:13;;;;;;;4.20;2.75;;;;;;;;;;10463810;28;20059;-74
2023/12/01 18:05:17;;;;;;;;;;;;;;;;;;10474385;28;20049;-74
2023/12/01 18:10:20;;;;;;;6.88;3.67;;;;;;;;;;10474255;28;19948;-74
2023/12/01 18:15:25;;;;;;;6.30;3.92;;;;;;;;;;10467967;28;20041;-73
2023/12/01 18:20:28;;;;;;;7.53;4.25;;;;;;;;;;10461106;28;20048;-74
2023/12/01 18:25:32;;;;;;;6.95;4.22;;;;;;;;;;10468903;28;20045;-73
2023/12/01 18:30:37;;;;;;;7.13;4.05;;;;;;;;;;10468528;28;20040;-73
2023/12/01 18:35:40;;;;;;;6.57;4.15;;;;;;;;;;10481003;28;20115;-73
2023/12/01 18:40:44;;;;;;;6.18;4.38;;;;;;;;;;10474383;28;20037;-74
2023/12/01 18:45:49;;;;;;;5.72;3.65;;;;;;;;;;10471100;28;20044;-73
2023/12/01 18:50:52;;;;;;;5.70;3.50;;;;;;;;;;10473606;28;20090;-74
2023/12/01 18:55:56;;;;;;;6.13;4.05;;;;;;;;;;10469419;28;20045;-73
2023/12/01 19:01:00;;;;;;;5.05;3.50;;;;;;;;;;10473295;28;20029;-73
2023/12/01 19:06:04;;;;;;;7.78;4.03;;;;;;;;;;10469664;28;20049;-74
2023/12/01 19:11:07;;;;;;;6.05;3.35;;;;;;;;;;10474076;28;20115;-73
2023/12/01 19:16:12;;;;;;;5.35;3.55;;;;;;;;;;10475466;28;20048;-73
2023/12/01 19:21:15;;;;;;;5.53;3.38;;;;;;;;;;10473132;28;20049;-73
2023/12/01 19:26:19;;;;;;;5.80;3.58;;;;;;;;;;10451871;28;20060;-74
2023/12/01 19:31:26;;;;;;;5.03;3.03;;;;;;;;;;10475682;28;20036;-74
2023/12/01 19:36:29;;;;;;;5.55;3.38;;;;;;;;;;10474267;28;20036;-74
2023/12/01 19:41:32;;;;;;;5.25;3.70;;;;;;;;;;10474184;28;20051;-73
2023/12/01 19:46:37;;;;;;;5.47;3.25;;;;;;;;;;10469916;28;20068;-73
2023/12/01 19:51:40;;;;;;;6.43;3.35;;;;;;;;;;10456551;28;20039;-73
2023/12/01 19:56:44;;;;;;;7.07;4.18;;;;;;;;;;10465275;28;20055;-74
2023/12/01 20:01:49;;;;;;;6.47;4.03;;;;;;;;;;10449456;28;20048;-74
2023/12/01 20:06:53;;;;;;;6.53;3.85;;;;;;;;;;10472247;28;20032;-73
2023/12/01 20:11:56;;;;;;;7.32;4.30;;;;;;;;;;10455331;28;20072;-73
2023/12/01 20:17:00;;;;;;;10.45;5.75;;;;;;;;;;10474808;28;20048;-73
2023/12/01 20:22:04;;;;;;;7.78;5.15;;;;;;;;;;10466073;28;20043;-74
2023/12/01 20:27:08;;;;;;;7.50;4.40;;;;;;;;;;10457582;28;20422;-73
2023/12/01 20:32:12;;;;;;;10.38;6.68;;;;;;;;;;10478032;28;20043;-73
2023/12/01 20:37:15;;;;;;;6.93;4.68;;;;;;;;;;10477515;28;20052;-73
2023/12/01 20:42:19;;;;;;;8.32;5.40;;;;;;;;;;10472925;28;20047;-73
2023/12/01 20:47:24;;;;;;;7.80;4.15;;;;;;;;;;10477598;28;20095;-73
2023/12/01 20:52:28;;;;;;;6.40;3.93;;;;;;;;;;10471895;28;20039;-73
2023/12/01 20:57:31;;;;;;;8.13;4.38;;;;;;;;;;10483190;28;20387;-73
2023/12/01 21:02:35;;;;;;;8.02;4.68;;;;;;;;;;10482637;28;20038;-73
2023/12/01 21:07:39;;;;;;;6.63;4.15;;;;;;;;;;10482077;28;20040;-73
2023/12/01 21:12:42;;;;;;;6.78;3.97;;;;;;;;;;10480822;28;20502;-73
2023/12/01 21:17:47;;;;;;;6.15;3.78;;;;;;;;;;10476063;28;20044;-73
2023/12/01 21:22:50;;;;;;;6.70;4.40;;;;;;;;;;10473380;28;20090;-73
2023/12/01 21:27:53;;;;;;;7.18;4.50;;;;;;;;;;10464318;28;20064;-74
2023/12/01 21:32:58;;;;;;;5.80;3.95;;;;;;;;;;10474473;28;20043;-73
2023/12/01 21:38:01;;;;;;;7.72;4.57;;;;;;;;;;10468423;28;20103;-73
2023/12/01 21:43:04;;;;;;;7.10;4.18;;;;;;;;;;10478370;28;20033;-73
2023/12/01 21:48:09;;;;;;;5.40;3.50;;;;;;;;;;10468225;28;20519;-73
2023/12/01 21:53:13;;;;;;;5.05;3.22;;;;;;;;;;10468058;28;20558;-73
2023/12/01 21:58:16;;;;;;;5.22;3.55;;;;;;;;;;10470525;28;20384;-73
2023/12/01 22:03:20;;;;;;;6.22;3.67;;;;;;;;;;10481665;28;20041;-73
2023/12/01 22:08:24;;;;;;;4.63;3.22;;;;;;;;;;10454367;28;20380;-73
2023/12/01 22:13:27;;;;;;;5.88;3.65;;;;;;;;;;10477251;28;20063;-73
2023/12/01 22:18:32;;;;;;;5.57;3.92;;;;;;;;;;10474082;28;20582;-73
2023/12/01 22:23:35;;;;;;;4.72;3.33;;;;;;;;;;10522767;22;20514;-73
2023/12/01 22:28:38;;;;;;;6.30;4.13;;;;;;;;;;10570917;28;20047;-73
2023/12/01 22:33:43;;;;;;;5.35;3.22;;;;;;;;;;10604463;28;20038;-73
2023/12/01 22:38:46;;;;;;;5.45;3.50;;;;;;;;;;10602099;28;20043;-73
2023/12/01 22:43:50;;;;;;;5.57;3.55;;;;;;;;;;10599937;28;20068;-73
2023/12/01 22:48:54;;;;;;;6.38;3.83;;;;;;;;;;10605262;28;20592;-73
2023/12/01 22:53:58;;;;;;;5.88;3.95;;;;;;;;;;10609179;28;20047;-73
2023/12/01 22:59:01;;;;;;;5.50;3.08;;;;;;;;;;10601565;28;20044;-73
2023/12/01 23:04:05;;;;;;;5.28;3.30;;;;;;;;;;10603512;28;20043;-73
2023/12/01 23:09:09;;;;;;;4.60;3.05;;;;;;;;;;10594791;28;20125;-74
2023/12/01 23:14:12;;;;;;;4.35;2.95;;;;;;;;;;10605344;27;20508;-73
2023/12/01 23:19:17;;;;;;;5.22;3.17;;;;;;;;;;10608615;27;20441;-74
2023/12/01 23:24:20;;;;;;;5.63;3.72;;;;;;;;;;10614704;27;20496;-74
2023/12/01 23:29:24;;;;;;;5.47;3.90;;;;;;;;;;10613716;27;20049;-73
2023/12/01 23:34:28;;;;;;;4.82;3.35;;;;;;;;;;10618451;27;20042;-73
2023/12/01 23:39:32;;;;;;;5.85;3.65;;;;;;;;;;10624667;27;20096;-73
2023/12/01 23:44:35;;;;;;;5.30;3.20;;;;;;;;;;10616187;27;20067;-74
2023/12/01 23:49:39;;;;;;;6.32;3.92;;;;;;;;;;10612613;27;20039;-74
2023/12/01 23:54:43;;;;;;;5.50;3.40;;;;;;;;;;10620910;27;20039;-74
2023/12/01 23:59:46;;;;;;;5.03;3.42;;;;;;;;;;10624376;27;20447;-74
